sensor_id;sensor_type;location;lat;lon;timestamp;P1;durP1;ratioP1;P2;durP2;ratioP2
20431;SDS011;10375;49.136;10.366;2023-12-14T00:01:17;11.43;;;7.57;;
20431;SDS011;10375;49.136;10.366;2023-12-14T00:03:45;11.00;;;8.30;;
20431;SDS011;10375;49.136;10.366;2023-12-14T00:06:13;11.17;;;7.93;;
20431;SDS011;10375;49.136;10.366;2023-12-14T00:08:40;11.27;;;7.90;;
20431;SDS011;10375;49.136;10.366;2023-12-14T00:11:08;14.70;;;7.97;;
20431;SDS011;10375;49.136;10.366;2023-12-14T00:13:37;13.23;;;8.60;;
20431;SDS011;10375;49.136;10.366;2023-12-14T00:16:06;12.37;;;8.83;;
20431;SDS011;10375;49.136;10.366;2023-12-14T00:18:33;14.20;;;9.17;;
20431;SDS011;10375;49.136;10.366;2023-12-14T00:21:01;13.77;;;9.50;;
20431;SDS011;10375;49.136;10.366;2023-12-14T00:23:29;16.07;;;9.63;;
20431;SDS011;10375;49.136;10.366;2023-12-14T00:25:56;15.53;;;10.30;;
20431;SDS011;10375;49.136;10.366;2023-12-14T00:28:23;14.70;;;10.07;;
20431;SDS011;10375;49.136;10.366;2023-12-14T00:30:55;14.93;;;10.73;;
20431;SDS011;10375;49.136;10.366;2023-12-14T00:33:22;16.13;;;10.60;;
20431;SDS011;10375;49.136;10.366;2023-12-14T00:35:50;14.47;;;10.17;;
20431;SDS011;10375;49.136;10.366;2023-12-14T00:38:18;15.20;;;10.40;;
20431;SDS011;10375;49.136;10.366;2023-12-14T00:40:45;12.23;;;9.27;;
20431;SDS011;10375;49.136;10.366;2023-12-14T00:43:12;15.53;;;9.60;;
20431;SDS011;10375;49.136;10.366;2023-12-14T00:45:39;16.60;;;10.37;;
20431;SDS011;10375;49.136;10.366;2023-12-14T00:48:07;13.93;;;10.07;;
20431;SDS011;10375;49.136;10.366;2023-12-14T00:50:35;13.97;;;9.60;;
20431;SDS011;10375;49.136;10.366;2023-12-14T00:53:02;16.63;;;9.60;;
20431;SDS011;10375;49.136;10.366;2023-12-14T00:55:29;14.77;;;10.30;;
20431;SDS011;10375;49.136;10.366;2023-12-14T00:57:56;12.90;;;9.47;;
20431;SDS011;10375;49.136;10.366;2023-12-14T01:00:24;12.47;;;9.77;;
20431;SDS011;10375;49.136;10.366;2023-12-14T01:02:51;18.70;;;10.03;;
20431;SDS011;10375;49.136;10.366;2023-12-14T01:05:18;15.30;;;10.67;;
20431;SDS011;10375;49.136;10.366;2023-12-14T01:41:41;19.00;;;12.60;;
20431;SDS011;10375;49.136;10.366;2023-12-14T01:44:08;18.53;;;13.03;;
20431;SDS011;10375;49.136;10.366;2023-12-14T01:46:35;19.00;;;12.70;;
20431;SDS011;10375;49.136;10.366;2023-12-14T01:49:02;25.90;;;13.60;;
20431;SDS011;10375;49.136;10.366;2023-12-14T01:51:30;20.50;;;14.07;;
20431;SDS011;10375;49.136;10.366;2023-12-14T01:53:58;19.27;;;12.83;;
20431;SDS011;10375;49.136;10.366;2023-12-14T01:56:25;19.03;;;13.23;;
20431;SDS011;10375;49.136;10.366;2023-12-14T01:58:52;21.40;;;13.63;;
20431;SDS011;10375;49.136;10.366;2023-12-14T02:01:29;18.13;;;13.50;;
20431;SDS011;10375;49.136;10.366;2023-12-14T02:04:13;21.70;;;13.33;;
20431;SDS011;10375;49.136;10.366;2023-12-14T02:06:41;21.97;;;13.50;;
20431;SDS011;10375;49.136;10.366;2023-12-14T02:09:08;24.30;;;15.20;;
20431;SDS011;10375;49.136;10.366;2023-12-14T02:11:36;24.00;;;14.67;;
20431;SDS011;10375;49.136;10.366;2023-12-14T02:14:04;21.17;;;14.07;;
20431;SDS011;10375;49.136;10.366;2023-12-14T02:16:32;21.60;;;14.00;;
20431;SDS011;10375;49.136;10.366;2023-12-14T02:18:59;20.83;;;13.90;;
20431;SDS011;10375;49.136;10.366;2023-12-14T02:21:27;22.87;;;14.67;;
20431;SDS011;10375;49.136;10.366;2023-12-14T02:23:54;23.87;;;14.60;;
20431;SDS011;10375;49.136;10.366;2023-12-14T02:26:21;24.97;;;15.43;;
20431;SDS011;10375;49.136;10.366;2023-12-14T02:28:49;23.90;;;15.33;;
20431;SDS011;10375;49.136;10.366;2023-12-14T02:31:17;28.03;;;15.20;;
20431;SDS011;10375;49.136;10.366;2023-12-14T02:33:45;25.47;;;15.00;;
20431;SDS011;10375;49.136;10.366;2023-12-14T02:36:12;25.87;;;16.43;;
20431;SDS011;10375;49.136;10.366;2023-12-14T02:38:39;26.20;;;16.17;;
20431;SDS011;10375;49.136;10.366;2023-12-14T02:41:07;26.60;;;16.33;;
20431;SDS011;10375;49.136;10.366;2023-12-14T02:43:34;26.13;;;15.13;;
20431;SDS011;10375;49.136;10.366;2023-12-14T02:46:01;27.63;;;17.13;;
20431;SDS011;10375;49.136;10.366;2023-12-14T02:48:29;30.37;;;17.10;;
20431;SDS011;10375;49.136;10.366;2023-12-14T02:50:57;29.53;;;17.87;;
20431;SDS011;10375;49.136;10.366;2023-12-14T02:53:27;29.37;;;16.83;;
20431;SDS011;10375;49.136;10.366;2023-12-14T02:55:54;28.33;;;16.73;;
20431;SDS011;10375;49.136;10.366;2023-12-14T02:58:21;28.57;;;18.03;;
20431;SDS011;10375;49.136;10.366;2023-12-14T03:00:49;38.83;;;23.27;;
20431;SDS011;10375;49.136;10.366;2023-12-14T03:03:16;29.80;;;17.40;;
20431;SDS011;10375;49.136;10.366;2023-12-14T03:05:43;30.87;;;17.27;;
20431;SDS011;10375;49.136;10.366;2023-12-14T03:08:11;45.17;;;27.17;;
20431;SDS011;10375;49.136;10.366;2023-12-14T03:10:38;28.90;;;18.70;;
20431;SDS011;10375;49.136;10.366;2023-12-14T03:13:05;30.30;;;17.87;;
20431;SDS011;10375;49.136;10.366;2023-12-14T03:15:33;24.90;;;16.70;;
20431;SDS011;10375;49.136;10.366;2023-12-14T03:18:00;27.30;;;16.20;;
20431;SDS011;10375;49.136;10.366;2023-12-14T03:20:30;25.70;;;17.10;;
20431;SDS011;10375;49.136;10.366;2023-12-14T03:22:57;28.73;;;17.00;;
20431;SDS011;10375;49.136;10.366;2023-12-14T03:25:24;34.47;;;17.37;;
20431;SDS011;10375;49.136;10.366;2023-12-14T03:27:52;28.90;;;16.73;;
20431;SDS011;10375;49.136;10.366;2023-12-14T03:30:19;27.00;;;17.07;;
20431;SDS011;10375;49.136;10.366;2023-12-14T03:32:46;30.40;;;17.60;;
20431;SDS011;10375;49.136;10.366;2023-12-14T03:35:13;28.03;;;18.47;;
20431;SDS011;10375;49.136;10.366;2023-12-14T03:37:41;30.07;;;18.57;;
20431;SDS011;10375;49.136;10.366;2023-12-14T03:40:08;31.30;;;18.20;;
20431;SDS011;10375;49.136;10.366;2023-12-14T03:42:35;26.97;;;17.13;;
20431;SDS011;10375;49.136;10.366;2023-12-14T03:45:03;32.37;;;17.30;;
20431;SDS011;10375;49.136;10.366;2023-12-14T03:47:33;27.73;;;16.73;;
20431;SDS011;10375;49.136;10.366;2023-12-14T03:50:00;33.40;;;16.77;;
20431;SDS011;10375;49.136;10.366;2023-12-14T03:52:28;28.03;;;17.33;;
20431;SDS011;10375;49.136;10.366;2023-12-14T03:54:58;27.10;;;15.93;;
20431;SDS011;10375;49.136;10.366;2023-12-14T03:57:26;30.80;;;16.77;;
20431;SDS011;10375;49.136;10.366;2023-12-14T03:59:53;27.33;;;16.10;;
20431;SDS011;10375;49.136;10.366;2023-12-14T04:02:20;26.00;;;13.73;;
20431;SDS011;10375;49.136;10.366;2023-12-14T04:04:48;28.80;;;14.23;;
20431;SDS011;10375;49.136;10.366;2023-12-14T04:07:15;23.17;;;12.70;;
20431;SDS011;10375;49.136;10.366;2023-12-14T04:09:43;21.63;;;12.77;;
20431;SDS011;10375;49.136;10.366;2023-12-14T04:12:12;22.23;;;13.47;;
20431;SDS011;10375;49.136;10.366;2023-12-14T04:14:39;26.40;;;14.53;;
20431;SDS011;10375;49.136;10.366;2023-12-14T04:17:06;23.17;;;13.43;;
20431;SDS011;10375;49.136;10.366;2023-12-14T04:19:34;25.80;;;12.97;;
20431;SDS011;10375;49.136;10.366;2023-12-14T04:22:01;18.57;;;11.03;;
20431;SDS011;10375;49.136;10.366;2023-12-14T04:24:28;19.20;;;11.20;;
20431;SDS011;10375;49.136;10.366;2023-12-14T04:26:56;20.63;;;8.90;;
20431;SDS011;10375;49.136;10.366;2023-12-14T04:29:24;13.60;;;7.83;;
20431;SDS011;10375;49.136;10.366;2023-12-14T04:31:51;16.30;;;7.57;;
20431;SDS011;10375;49.136;10.366;2023-12-14T04:34:19;12.30;;;6.83;;
20431;SDS011;10375;49.136;10.366;2023-12-14T04:36:47;9.77;;;6.43;;
20431;SDS011;10375;49.136;10.366;2023-12-14T04:39:15;20.93;;;6.00;;
20431;SDS011;10375;49.136;10.366;2023-12-14T04:41:43;13.03;;;6.23;;
20431;SDS011;10375;49.136;10.366;2023-12-14T04:44:10;8.33;;;5.27;;
20431;SDS011;10375;49.136;10.366;2023-12-14T04:46:38;10.83;;;5.70;;
20431;SDS011;10375;49.136;10.366;2023-12-14T04:49:05;12.70;;;6.07;;
20431;SDS011;10375;49.136;10.366;2023-12-14T04:51:33;9.80;;;5.87;;
20431;SDS011;10375;49.136;10.366;2023-12-14T04:54:00;9.10;;;5.93;;
20431;SDS011;10375;49.136;10.366;2023-12-14T04:56:27;11.97;;;6.53;;
20431;SDS011;10375;49.136;10.366;2023-12-14T04:58:54;9.97;;;6.93;;
20431;SDS011;10375;49.136;10.366;2023-12-14T05:01:21;10.10;;;6.47;;
20431;SDS011;10375;49.136;10.366;2023-12-14T05:03:48;9.73;;;5.83;;
20431;SDS011;10375;49.136;10.366;2023-12-14T05:06:15;8.83;;;6.00;;
20431;SDS011;10375;49.136;10.366;2023-12-14T05:08:43;8.90;;;5.57;;
20431;SDS011;10375;49.136;10.366;2023-12-14T05:55:53;8.60;;;4.60;;
20431;SDS011;10375;49.136;10.366;2023-12-14T05:58:21;8.73;;;4.60;;
20431;SDS011;10375;49.136;10.366;2023-12-14T06:00:48;7.67;;;4.57;;
20431;SDS011;10375;49.136;10.366;2023-12-14T06:03:16;11.70;;;6.60;;
20431;SDS011;10375;49.136;10.366;2023-12-14T06:05:43;13.82;;;7.43;;
20431;SDS011;10375;49.136;10.366;2023-12-14T06:08:10;11.53;;;6.20;;
20431;SDS011;10375;49.136;10.366;2023-12-14T06:18:43;12.10;;;7.17;;
20431;SDS011;10375;49.136;10.366;2023-12-14T06:21:11;19.07;;;7.83;;
20431;SDS011;10375;49.136;10.366;2023-12-14T06:23:39;15.90;;;8.23;;
20431;SDS011;10375;49.136;10.366;2023-12-14T06:26:06;17.73;;;7.53;;
20431;SDS011;10375;49.136;10.366;2023-12-14T06:28:34;15.07;;;8.30;;
20431;SDS011;10375;49.136;10.366;2023-12-14T06:31:01;13.67;;;7.70;;
20431;SDS011;10375;49.136;10.366;2023-12-14T06:33:28;14.27;;;8.57;;
20431;SDS011;10375;49.136;10.366;2023-12-14T06:35:57;48.43;;;9.63;;
20431;SDS011;10375;49.136;10.366;2023-12-14T06:38:24;19.80;;;8.43;;
20431;SDS011;10375;49.136;10.366;2023-12-14T06:40:52;32.20;;;8.97;;
20431;SDS011;10375;49.136;10.366;2023-12-14T06:43:19;13.47;;;7.77;;
20431;SDS011;10375;49.136;10.366;2023-12-14T06:45:46;15.10;;;7.83;;
20431;SDS011;10375;49.136;10.366;2023-12-14T06:48:13;22.63;;;8.67;;
20431;SDS011;10375;49.136;10.366;2023-12-14T06:50:40;13.37;;;7.40;;
20431;SDS011;10375;49.136;10.366;2023-12-14T06:53:09;26.70;;;7.57;;
20431;SDS011;10375;49.136;10.366;2023-12-14T06:55:37;13.40;;;7.27;;
20431;SDS011;10375;49.136;10.366;2023-12-14T06:58:04;14.07;;;6.10;;
20431;SDS011;10375;49.136;10.366;2023-12-14T07:03:11;11.03;;;7.10;;
20431;SDS011;10375;49.136;10.366;2023-12-14T07:05:40;9.73;;;5.97;;
20431;SDS011;10375;49.136;10.366;2023-12-14T07:16:07;10.97;;;5.67;;
20431;SDS011;10375;49.136;10.366;2023-12-14T07:18:36;10.70;;;6.40;;
20431;SDS011;10375;49.136;10.366;2023-12-14T07:21:05;23.17;;;6.90;;
20431;SDS011;10375;49.136;10.366;2023-12-14T07:23:33;11.70;;;7.00;;
20431;SDS011;10375;49.136;10.366;2023-12-14T07:26:01;13.33;;;7.07;;
20431;SDS011;10375;49.136;10.366;2023-12-14T07:28:32;14.77;;;7.77;;
20431;SDS011;10375;49.136;10.366;2023-12-14T07:30:59;11.13;;;6.83;;
20431;SDS011;10375;49.136;10.366;2023-12-14T07:33:26;12.60;;;6.80;;
20431;SDS011;10375;49.136;10.366;2023-12-14T07:35:54;12.73;;;7.93;;
20431;SDS011;10375;49.136;10.366;2023-12-14T07:38:21;15.07;;;7.53;;
20431;SDS011;10375;49.136;10.366;2023-12-14T07:40:48;11.77;;;7.37;;
20431;SDS011;10375;49.136;10.366;2023-12-14T07:43:16;14.20;;;7.20;;
20431;SDS011;10375;49.136;10.366;2023-12-14T07:45:44;8.20;;;6.13;;
20431;SDS011;10375;49.136;10.366;2023-12-14T07:48:12;9.00;;;6.27;;
20431;SDS011;10375;49.136;10.366;2023-12-14T07:50:39;9.73;;;6.20;;
20431;SDS011;10375;49.136;10.366;2023-12-14T07:53:07;15.13;;;7.93;;
20431;SDS011;10375;49.136;10.366;2023-12-14T07:55:34;13.30;;;7.57;;
20431;SDS011;10375;49.136;10.366;2023-12-14T07:58:01;13.03;;;6.83;;
20431;SDS011;10375;49.136;10.366;2023-12-14T08:00:31;12.87;;;7.93;;
20431;SDS011;10375;49.136;10.366;2023-12-14T08:03:00;17.50;;;8.00;;
20431;SDS011;10375;49.136;10.366;2023-12-14T08:05:28;19.53;;;10.43;;
20431;SDS011;10375;49.136;10.366;2023-12-14T08:07:55;20.00;;;10.60;;
20431;SDS011;10375;49.136;10.366;2023-12-14T08:10:23;23.63;;;11.30;;
20431;SDS011;10375;49.136;10.366;2023-12-14T08:12:50;23.03;;;11.67;;
20431;SDS011;10375;49.136;10.366;2023-12-14T08:15:20;33.73;;;14.03;;
20431;SDS011;10375;49.136;10.366;2023-12-14T08:17:47;33.10;;;13.33;;
20431;SDS011;10375;49.136;10.366;2023-12-14T08:20:14;20.70;;;11.87;;
20431;SDS011;10375;49.136;10.366;2023-12-14T08:22:42;24.63;;;10.70;;
20431;SDS011;10375;49.136;10.366;2023-12-14T08:25:12;18.10;;;11.20;;
20431;SDS011;10375;49.136;10.366;2023-12-14T08:27:43;19.80;;;11.77;;
20431;SDS011;10375;49.136;10.366;2023-12-14T08:30:11;20.63;;;11.20;;
20431;SDS011;10375;49.136;10.366;2023-12-14T08:32:39;23.30;;;10.83;;
20431;SDS011;10375;49.136;10.366;2023-12-14T08:35:07;21.37;;;12.00;;
20431;SDS011;10375;49.136;10.366;2023-12-14T08:37:37;26.52;;;12.80;;
20431;SDS011;10375;49.136;10.366;2023-12-14T08:40:05;17.70;;;11.00;;
20431;SDS011;10375;49.136;10.366;2023-12-14T08:42:35;32.92;;;11.90;;
20431;SDS011;10375;49.136;10.366;2023-12-14T08:45:05;26.98;;;11.85;;
20431;SDS011;10375;49.136;10.366;2023-12-14T08:47:37;38.08;;;11.98;;
20431;SDS011;10375;49.136;10.366;2023-12-14T08:50:04;27.08;;;12.18;;
20431;SDS011;10375;49.136;10.366;2023-12-14T08:52:32;99.05;;;15.20;;
20431;SDS011;10375;49.136;10.366;2023-12-14T08:55:00;17.75;;;11.27;;
20431;SDS011;10375;49.136;10.366;2023-12-14T08:57:28;138.98;;;17.35;;
20431;SDS011;10375;49.136;10.366;2023-12-14T08:59:55;105.20;;;17.15;;
20431;SDS011;10375;49.136;10.366;2023-12-14T09:02:23;52.67;;;13.02;;
20431;SDS011;10375;49.136;10.366;2023-12-14T09:04:50;25.55;;;12.20;;
20431;SDS011;10375;49.136;10.366;2023-12-14T09:07:18;23.48;;;11.90;;
20431;SDS011;10375;49.136;10.366;2023-12-14T09:09:47;21.02;;;12.35;;
20431;SDS011;10375;49.136;10.366;2023-12-14T09:12:39;20.65;;;13.05;;
20431;SDS011;10375;49.136;10.366;2023-12-14T09:22:49;20.48;;;12.27;;
20431;SDS011;10375;49.136;10.366;2023-12-14T09:33:35;19.08;;;11.75;;
20431;SDS011;10375;49.136;10.366;2023-12-14T09:42:52;19.70;;;12.73;;
20431;SDS011;10375;49.136;10.366;2023-12-14T09:45:20;25.38;;;12.35;;
20431;SDS011;10375;49.136;10.366;2023-12-14T09:48:07;21.95;;;13.18;;
20431;SDS011;10375;49.136;10.366;2023-12-14T09:51:15;21.08;;;11.65;;
20431;SDS011;10375;49.136;10.366;2023-12-14T09:57:31;16.73;;;11.75;;
20431;SDS011;10375;49.136;10.366;2023-12-14T10:00:01;38.60;;;13.13;;
20431;SDS011;10375;49.136;10.366;2023-12-14T10:02:31;21.48;;;12.50;;
20431;SDS011;10375;49.136;10.366;2023-12-14T10:05:00;19.05;;;11.40;;
20431;SDS011;10375;49.136;10.366;2023-12-14T10:07:32;21.27;;;12.18;;
20431;SDS011;10375;49.136;10.366;2023-12-14T10:10:28;23.17;;;12.00;;
20431;SDS011;10375;49.136;10.366;2023-12-14T10:12:59;18.30;;;12.38;;
20431;SDS011;10375;49.136;10.366;2023-12-14T10:15:48;19.98;;;12.15;;
20431;SDS011;10375;49.136;10.366;2023-12-14T10:18:23;21.35;;;11.32;;
20431;SDS011;10375;49.136;10.366;2023-12-14T10:24:00;17.33;;;9.98;;
20431;SDS011;10375;49.136;10.366;2023-12-14T10:29:07;22.73;;;11.38;;
20431;SDS011;10375;49.136;10.366;2023-12-14T10:31:36;16.08;;;10.45;;
20431;SDS011;10375;49.136;10.366;2023-12-14T10:34:04;21.90;;;10.38;;
20431;SDS011;10375;49.136;10.366;2023-12-14T10:36:33;16.20;;;9.68;;
20431;SDS011;10375;49.136;10.366;2023-12-14T10:39:02;15.93;;;9.68;;
20431;SDS011;10375;49.136;10.366;2023-12-14T10:41:34;12.27;;;8.90;;
20431;SDS011;10375;49.136;10.366;2023-12-14T10:44:26;16.38;;;10.38;;
20431;SDS011;10375;49.136;10.366;2023-12-14T10:47:20;21.67;;;10.27;;
20431;SDS011;10375;49.136;10.366;2023-12-14T10:49:50;14.60;;;10.23;;
20431;SDS011;10375;49.136;10.366;2023-12-14T10:52:19;15.95;;;9.77;;
20431;SDS011;10375;49.136;10.366;2023-12-14T10:54:54;18.00;;;10.45;;
20431;SDS011;10375;49.136;10.366;2023-12-14T10:57:28;21.48;;;10.48;;
20431;SDS011;10375;49.136;10.366;2023-12-14T11:00:25;20.60;;;11.05;;
20431;SDS011;10375;49.136;10.366;2023-12-14T11:02:54;16.13;;;9.77;;
20431;SDS011;10375;49.136;10.366;2023-12-14T11:05:22;26.80;;;10.77;;
20431;SDS011;10375;49.136;10.366;2023-12-14T11:08:00;14.55;;;9.23;;
20431;SDS011;10375;49.136;10.366;2023-12-14T11:10:43;18.05;;;10.52;;
20431;SDS011;10375;49.136;10.366;2023-12-14T11:13:32;16.65;;;9.48;;
20431;SDS011;10375;49.136;10.366;2023-12-14T11:16:15;14.40;;;9.40;;
20431;SDS011;10375;49.136;10.366;2023-12-14T11:19:29;17.42;;;9.65;;
20431;SDS011;10375;49.136;10.366;2023-12-14T11:22:22;14.25;;;8.57;;
20431;SDS011;10375;49.136;10.366;2023-12-14T11:25:03;15.13;;;9.63;;
20431;SDS011;10375;49.136;10.366;2023-12-14T11:27:44;12.43;;;9.40;;
20431;SDS011;10375;49.136;10.366;2023-12-14T11:30:12;15.43;;;8.57;;
20431;SDS011;10375;49.136;10.366;2023-12-14T11:32:40;12.98;;;8.27;;
20431;SDS011;10375;49.136;10.366;2023-12-14T11:35:09;16.13;;;8.82;;
20431;SDS011;10375;49.136;10.366;2023-12-14T11:37:39;16.67;;;9.77;;
20431;SDS011;10375;49.136;10.366;2023-12-14T11:43:21;16.02;;;9.77;;
20431;SDS011;10375;49.136;10.366;2023-12-14T11:45:57;14.50;;;8.93;;
20431;SDS011;10375;49.136;10.366;2023-12-14T11:49:23;17.35;;;8.88;;
20431;SDS011;10375;49.136;10.366;2023-12-14T11:52:40;15.02;;;9.27;;
20431;SDS011;10375;49.136;10.366;2023-12-14T11:55:17;17.42;;;9.15;;
20431;SDS011;10375;49.136;10.366;2023-12-14T11:57:47;28.08;;;9.50;;
20431;SDS011;10375;49.136;10.366;2023-12-14T12:00:25;24.95;;;9.35;;
20431;SDS011;10375;49.136;10.366;2023-12-14T12:03:10;16.95;;;8.90;;
20431;SDS011;10375;49.136;10.366;2023-12-14T12:05:44;16.52;;;9.52;;
20431;SDS011;10375;49.136;10.366;2023-12-14T12:08:22;18.23;;;9.90;;
20431;SDS011;10375;49.136;10.366;2023-12-14T12:10:53;16.30;;;10.07;;
20431;SDS011;10375;49.136;10.366;2023-12-14T12:13:30;20.55;;;9.63;;
20431;SDS011;10375;49.136;10.366;2023-12-14T12:16:04;17.10;;;9.85;;
20431;SDS011;10375;49.136;10.366;2023-12-14T12:18:36;16.17;;;9.57;;
20431;SDS011;10375;49.136;10.366;2023-12-14T12:21:13;18.35;;;10.00;;
20431;SDS011;10375;49.136;10.366;2023-12-14T12:23:44;15.18;;;9.45;;
20431;SDS011;10375;49.136;10.366;2023-12-14T12:26:33;16.52;;;9.30;;
20431;SDS011;10375;49.136;10.366;2023-12-14T12:29:18;17.08;;;9.82;;
20431;SDS011;10375;49.136;10.366;2023-12-14T12:31:48;19.52;;;9.40;;
20431;SDS011;10375;49.136;10.366;2023-12-14T12:37:19;13.60;;;8.70;;
20431;SDS011;10375;49.136;10.366;2023-12-14T12:43:51;19.52;;;8.90;;
20431;SDS011;10375;49.136;10.366;2023-12-14T12:46:21;13.65;;;8.40;;
20431;SDS011;10375;49.136;10.366;2023-12-14T12:49:03;14.77;;;9.45;;
20431;SDS011;10375;49.136;10.366;2023-12-14T12:51:45;16.05;;;8.40;;
20431;SDS011;10375;49.136;10.366;2023-12-14T12:54:13;14.15;;;9.23;;
20431;SDS011;10375;49.136;10.366;2023-12-14T12:56:52;13.15;;;9.35;;
20431;SDS011;10375;49.136;10.366;2023-12-14T12:59:22;15.93;;;8.65;;
20431;SDS011;10375;49.136;10.366;2023-12-14T13:01:57;14.10;;;9.20;;
20431;SDS011;10375;49.136;10.366;2023-12-14T13:07:03;13.35;;;8.50;;
20431;SDS011;10375;49.136;10.366;2023-12-14T13:09:33;18.48;;;10.35;;
20431;SDS011;10375;49.136;10.366;2023-12-14T13:12:09;14.68;;;8.50;;
20431;SDS011;10375;49.136;10.366;2023-12-14T13:15:00;13.85;;;9.63;;
20431;SDS011;10375;49.136;10.366;2023-12-14T13:17:34;23.23;;;11.30;;
20431;SDS011;10375;49.136;10.366;2023-12-14T13:20:07;18.55;;;10.57;;
20431;SDS011;10375;49.136;10.366;2023-12-14T13:22:35;17.67;;;11.95;;
20431;SDS011;10375;49.136;10.366;2023-12-14T13:25:03;17.83;;;10.80;;
20431;SDS011;10375;49.136;10.366;2023-12-14T13:27:39;25.63;;;12.50;;
20431;SDS011;10375;49.136;10.366;2023-12-14T13:30:07;25.52;;;13.48;;
20431;SDS011;10375;49.136;10.366;2023-12-14T13:32:47;21.67;;;14.18;;
20431;SDS011;10375;49.136;10.366;2023-12-14T13:35:15;24.73;;;14.98;;
20431;SDS011;10375;49.136;10.366;2023-12-14T13:41:02;25.95;;;15.00;;
20431;SDS011;10375;49.136;10.366;2023-12-14T13:43:34;25.40;;;14.48;;
20431;SDS011;10375;49.136;10.366;2023-12-14T13:46:14;22.48;;;14.10;;
20431;SDS011;10375;49.136;10.366;2023-12-14T13:48:49;22.48;;;13.82;;
20431;SDS011;10375;49.136;10.366;2023-12-14T13:51:22;22.75;;;13.48;;
20431;SDS011;10375;49.136;10.366;2023-12-14T13:56:50;28.30;;;14.53;;
20431;SDS011;10375;49.136;10.366;2023-12-14T13:59:20;26.52;;;15.35;;
20431;SDS011;10375;49.136;10.366;2023-12-14T14:01:54;28.33;;;16.55;;
20431;SDS011;10375;49.136;10.366;2023-12-14T14:04:23;40.73;;;14.77;;
20431;SDS011;10375;49.136;10.366;2023-12-14T14:07:02;30.58;;;14.88;;
20431;SDS011;10375;49.136;10.366;2023-12-14T14:09:33;25.52;;;14.18;;
20431;SDS011;10375;49.136;10.366;2023-12-14T14:12:16;21.08;;;14.25;;
20431;SDS011;10375;49.136;10.366;2023-12-14T14:14:48;26.00;;;14.82;;
20431;SDS011;10375;49.136;10.366;2023-12-14T14:17:34;26.40;;;14.15;;
20431;SDS011;10375;49.136;10.366;2023-12-14T14:20:14;23.40;;;15.10;;
20431;SDS011;10375;49.136;10.366;2023-12-14T14:34:38;23.17;;;14.48;;
20431;SDS011;10375;49.136;10.366;2023-12-14T14:37:08;24.83;;;13.95;;
20431;SDS011;10375;49.136;10.366;2023-12-14T14:40:19;17.88;;;12.07;;
20431;SDS011;10375;49.136;10.366;2023-12-14T14:42:46;21.47;;;12.83;;
20431;SDS011;10375;49.136;10.366;2023-12-14T14:45:13;22.73;;;11.87;;
20431;SDS011;10375;49.136;10.366;2023-12-14T14:50:31;14.80;;;10.23;;
20431;SDS011;10375;49.136;10.366;2023-12-14T14:52:59;15.17;;;10.10;;
20431;SDS011;10375;49.136;10.366;2023-12-14T14:55:29;11.60;;;8.47;;
20431;SDS011;10375;49.136;10.366;2023-12-14T15:04:52;26.00;;;9.40;;
20431;SDS011;10375;49.136;10.366;2023-12-14T15:07:23;21.93;;;8.83;;
20431;SDS011;10375;49.136;10.366;2023-12-14T15:17:15;9.40;;;5.87;;
20431;SDS011;10375;49.136;10.366;2023-12-14T15:20:10;6.60;;;4.33;;
20431;SDS011;10375;49.136;10.366;2023-12-14T15:22:45;5.90;;;3.50;;
20431;SDS011;10375;49.136;10.366;2023-12-14T15:25:14;8.93;;;2.70;;
20431;SDS011;10375;49.136;10.366;2023-12-14T15:27:59;4.47;;;3.17;;
20431;SDS011;10375;49.136;10.366;2023-12-14T15:30:33;6.33;;;3.10;;
20431;SDS011;10375;49.136;10.366;2023-12-14T15:33:17;4.00;;;3.03;;
20431;SDS011;10375;49.136;10.366;2023-12-14T15:50:28;3.77;;;3.00;;
20431;SDS011;10375;49.136;10.366;2023-12-14T15:55:33;7.57;;;2.70;;
20431;SDS011;10375;49.136;10.366;2023-12-14T15:58:01;4.72;;;3.40;;
20431;SDS011;10375;49.136;10.366;2023-12-14T16:03:02;3.77;;;2.37;;
20431;SDS011;10375;49.136;10.366;2023-12-14T16:05:48;3.40;;;2.60;;
20431;SDS011;10375;49.136;10.366;2023-12-14T16:08:39;3.20;;;2.70;;
20431;SDS011;10375;49.136;10.366;2023-12-14T16:11:52;3.27;;;2.50;;
20431;SDS011;10375;49.136;10.366;2023-12-14T16:14:42;3.57;;;2.63;;
20431;SDS011;10375;49.136;10.366;2023-12-14T16:34:24;4.13;;;2.75;;
20431;SDS011;10375;49.136;10.366;2023-12-14T16:37:02;3.40;;;2.50;;
20431;SDS011;10375;49.136;10.366;2023-12-14T16:40:18;4.60;;;3.57;;
20431;SDS011;10375;49.136;10.366;2023-12-14T16:46:11;4.30;;;3.30;;
20431;SDS011;10375;49.136;10.366;2023-12-14T16:56:31;3.50;;;3.20;;
20431;SDS011;10375;49.136;10.366;2023-12-14T16:59:42;5.40;;;3.70;;
20431;SDS011;10375;49.136;10.366;2023-12-14T17:02:56;7.43;;;3.53;;
20431;SDS011;10375;49.136;10.366;2023-12-14T17:13:19;6.27;;;3.63;;
20431;SDS011;10375;49.136;10.366;2023-12-14T17:23:03;5.23;;;3.93;;
20431;SDS011;10375;49.136;10.366;2023-12-14T17:38:04;5.47;;;4.20;;
20431;SDS011;10375;49.136;10.366;2023-12-14T17:40:31;5.83;;;4.30;;
20431;SDS011;10375;49.136;10.366;2023-12-14T17:43:01;6.30;;;4.30;;
20431;SDS011;10375;49.136;10.366;2023-12-14T17:45:37;6.47;;;4.30;;
20431;SDS011;10375;49.136;10.366;2023-12-14T17:48:11;8.23;;;4.33;;
20431;SDS011;10375;49.136;10.366;2023-12-14T17:50:52;4.60;;;4.00;;
20431;SDS011;10375;49.136;10.366;2023-12-14T17:57:00;4.27;;;3.87;;
20431;SDS011;10375;49.136;10.366;2023-12-14T17:59:43;4.30;;;3.70;;
20431;SDS011;10375;49.136;10.366;2023-12-14T18:02:38;7.13;;;3.47;;
20431;SDS011;10375;49.136;10.366;2023-12-14T18:08:36;5.93;;;4.50;;
20431;SDS011;10375;49.136;10.366;2023-12-14T18:11:04;5.97;;;4.30;;
20431;SDS011;10375;49.136;10.366;2023-12-14T18:13:34;7.10;;;5.17;;
20431;SDS011;10375;49.136;10.366;2023-12-14T18:16:07;6.83;;;4.90;;
20431;SDS011;10375;49.136;10.366;2023-12-14T18:18:41;5.30;;;4.67;;
20431;SDS011;10375;49.136;10.366;2023-12-14T18:21:15;8.43;;;4.67;;
20431;SDS011;10375;49.136;10.366;2023-12-14T18:27:00;7.03;;;4.03;;
20431;SDS011;10375;49.136;10.366;2023-12-14T18:30:20;5.80;;;4.57;;
20431;SDS011;10375;49.136;10.366;2023-12-14T18:34:00;7.63;;;4.77;;
20431;SDS011;10375;49.136;10.366;2023-12-14T18:37:03;6.63;;;4.57;;
20431;SDS011;10375;49.136;10.366;2023-12-14T18:41:01;6.37;;;4.80;;
20431;SDS011;10375;49.136;10.366;2023-12-14T18:43:33;6.80;;;5.00;;
20431;SDS011;10375;49.136;10.366;2023-12-14T18:46:43;7.67;;;5.30;;
20431;SDS011;10375;49.136;10.366;2023-12-14T18:49:43;8.03;;;5.87;;
20431;SDS011;10375;49.136;10.366;2023-12-14T18:52:30;6.37;;;5.30;;
20431;SDS011;10375;49.136;10.366;2023-12-14T18:55:10;6.47;;;5.33;;
20431;SDS011;10375;49.136;10.366;2023-12-14T18:58:10;6.43;;;5.03;;
20431;SDS011;10375;49.136;10.366;2023-12-14T19:00:39;6.53;;;5.17;;
20431;SDS011;10375;49.136;10.366;2023-12-14T19:03:09;11.97;;;5.90;;
20431;SDS011;10375;49.136;10.366;2023-12-14T19:05:36;6.10;;;5.13;;
20431;SDS011;10375;49.136;10.366;2023-12-14T19:08:04;11.00;;;5.67;;
20431;SDS011;10375;49.136;10.366;2023-12-14T19:10:32;9.53;;;6.40;;
20431;SDS011;10375;49.136;10.366;2023-12-14T19:13:02;8.00;;;6.17;;
20431;SDS011;10375;49.136;10.366;2023-12-14T19:15:30;6.83;;;5.53;;